Time;durP1;ratioP1;P1;durP2;ratioP2;P2;SDS_P1;SDS_P2;PMS_P1;PMS_P2;Temp;Humidity;BMP_temperature;BMP_pressure;BME280_temperature;BME280_humidity;BME280_pressure;Samples;Min_cycle;Max_cycle;Signal;HPM_P1;HPM_P2
2022/03/31 00:00:03;;;;;;;13.55;4.30;;;21.00;99.90;;;;;;5092432;28;20261;-78
2022/03/31 00:02:34;;;;;;;7.90;4.05;;;21.00;99.90;;;;;;5104008;28;20621;-79
2022/03/31 00:05:04;;;;;;;7.82;3.30;;;21.00;99.90;;;;;;5105134;28;20201;-80
2022/03/31 00:07:35;;;;;;;13.85;3.92;;;21.00;99.90;;;;;;5114895;28;20190;-79
2022/03/31 00:10:06;;;;;;;8.80;3.42;;;21.10;99.90;;;;;;5114266;28;20325;-79
2022/03/31 00:12:38;;;;;;;8.82;4.00;;;21.00;99.90;;;;;;5110470;28;20179;-79
2022/03/31 00:15:11;;;;;;;8.60;3.72;;;21.00;99.90;;;;;;5110422;28;20202;-79
2022/03/31 00:17:42;;;;;;;8.40;3.83;;;21.00;99.90;;;;;;5110233;28;20610;-80
2022/03/31 00:20:13;;;;;;;6.65;3.72;;;21.00;99.90;;;;;;5110425;28;20197;-81
2022/03/31 00:22:44;;;;;;;8.27;3.50;;;21.00;99.90;;;;;;5108883;28;20194;-80
2022/03/31 00:25:15;;;;;;;8.75;3.38;;;20.90;99.90;;;;;;5110541;28;20247;-80
2022/03/31 00:27:45;;;;;;;9.10;3.38;;;20.90;99.90;;;;;;5110757;28;20190;-80
2022/03/31 00:30:19;;;;;;;11.13;3.67;;;20.80;99.90;;;;;;5110334;28;20275;-80
2022/03/31 00:32:50;;;;;;;7.05;3.85;;;20.70;99.90;;;;;;5110685;28;20198;-83
2022/03/31 00:35:23;;;;;;;6.78;3.55;;;20.70;99.90;;;;;;5106725;28;20665;-82
2022/03/31 00:37:53;;;;;;;11.25;3.88;;;20.70;99.90;;;;;;5110546;28;20191;-83
2022/03/31 00:40:25;;;;;;;9.52;3.85;;;20.80;99.90;;;;;;5114469;27;20202;-82
2022/03/31 00:42:58;;;;;;;8.32;3.60;;;20.90;99.90;;;;;;5114107;27;20238;-81
2022/03/31 00:45:46;;;;;;;9.90;3.92;;;20.90;99.90;;;;;;5113661;27;20226;-80
2022/03/31 00:48:17;;;;;;;11.65;3.60;;;21.00;99.90;;;;;;5114444;27;20195;-81
2022/03/31 00:50:48;;;;;;;11.18;3.55;;;21.10;99.90;;;;;;5114257;27;20206;-81
2022/03/31 00:53:19;;;;;;;10.70;3.35;;;21.20;99.90;;;;;;5113344;27;20251;-80
2022/03/31 00:55:50;;;;;;;9.95;3.78;;;21.20;99.90;;;;;;5113204;28;20221;-81
2022/03/31 00:58:22;;;;;;;5.85;3.47;;;21.10;99.90;;;;;;5117214;27;20190;-81
2022/03/31 01:00:55;;;;;;;7.00;3.17;;;21.20;99.90;;;;;;5133792;27;20533;-81
2022/03/31 01:03:25;;;;;;;5.18;2.55;;;21.10;99.90;;;;;;5133937;27;20692;-81
2022/03/31 01:05:56;;;;;;;3.92;2.40;;;21.10;99.90;;;;;;5119089;27;20212;-80
2022/03/31 01:08:27;;;;;;;5.13;2.55;;;20.90;99.90;;;;;;5113159;28;20248;-82
2022/03/31 01:10:58;;;;;;;7.25;2.50;;;20.90;99.90;;;;;;5128514;27;20782;-83
2022/03/31 01:13:28;;;;;;;8.07;2.72;;;20.80;99.90;;;;;;5124709;27;20278;-83
2022/03/31 01:16:01;;;;;;;5.53;2.53;;;20.80;99.90;;;;;;5125199;27;20190;-83
2022/03/31 01:18:32;;;;;;;6.78;2.67;;;20.70;99.90;;;;;;5123180;27;20661;-83
2022/03/31 01:21:03;;;;;;;6.43;2.80;;;20.70;99.90;;;;;;5113973;27;20576;-83
2022/03/31 01:23:36;;;;;;;9.15;2.97;;;20.70;99.90;;;;;;5123948;27;20367;-82
2022/03/31 01:26:11;;;;;;;6.32;3.00;;;20.70;99.90;;;;;;5118827;27;20656;-83
2022/03/31 01:28:44;;;;;;;6.90;2.83;;;20.70;99.90;;;;;;5123306;27;20568;-83
2022/03/31 01:31:15;;;;;;;9.23;3.45;;;20.70;99.90;;;;;;5118307;27;20222;-82
2022/03/31 01:33:45;;;;;;;6.80;3.10;;;20.80;99.90;;;;;;5120987;27;20281;-82
2022/03/31 01:36:16;;;;;;;9.63;3.90;;;20.80;99.90;;;;;;5133484;27;20591;-83
2022/03/31 01:38:48;;;;;;;13.65;4.55;;;20.80;99.90;;;;;;5133489;27;20187;-83
2022/03/31 01:41:19;;;;;;;12.40;3.47;;;20.90;99.90;;;;;;5128396;27;20191;-82
2022/03/31 01:43:50;;;;;;;12.70;3.65;;;20.90;99.90;;;;;;5120908;27;20274;-82
2022/03/31 01:46:20;;;;;;;17.25;4.30;;;20.90;99.90;;;;;;5125783;27;20186;-83
2022/03/31 01:48:52;;;;;;;11.73;3.92;;;20.90;99.90;;;;;;5126052;27;20243;-83
2022/03/31 01:51:23;;;;;;;20.25;4.95;;;20.90;99.90;;;;;;5121563;27;20225;-83
2022/03/31 01:53:55;;;;;;;16.25;4.18;;;20.80;99.90;;;;;;5114782;27;20187;-83
2022/03/31 01:56:26;;;;;;;16.13;4.53;;;20.70;99.90;;;;;;5109765;27;20673;-83
2022/03/31 01:58:57;;;;;;;14.70;4.32;;;20.70;99.90;;;;;;5125109;27;20187;-83
2022/03/31 02:01:27;;;;;;;17.05;4.78;;;20.60;99.90;;;;;;5121064;27;20278;-84
2022/03/31 02:03:58;;;;;;;19.10;4.95;;;20.60;99.90;;;;;;5112903;27;20187;-82
2022/03/31 02:06:29;;;;;;;16.25;4.28;;;20.60;99.90;;;;;;5125734;27;20201;-83
2022/03/31 02:09:01;;;;;;;15.82;4.38;;;20.50;99.90;;;;;;5118529;27;20259;-83
2022/03/31 02:11:32;;;;;;;17.25;4.03;;;20.40;99.90;;;;;;5116339;27;20226;-82
2022/03/31 02:14:03;;;;;;;13.75;4.30;;;20.30;99.90;;;;;;5132802;27;20280;-82
2022/03/31 02:16:33;;;;;;;15.63;4.47;;;20.30;99.90;;;;;;5127064;27;20663;-82
2022/03/31 02:19:04;;;;;;;18.65;4.35;;;20.30;99.90;;;;;;5121119;27;20190;-83
2022/03/31 02:21:35;;;;;;;17.73;4.45;;;20.20;99.90;;;;;;5112554;27;20195;-83
2022/03/31 02:24:08;;;;;;;14.18;4.13;;;20.10;99.90;;;;;;5125903;27;20182;-83
2022/03/31 02:26:39;;;;;;;17.92;4.25;;;20.10;99.90;;;;;;5114558;27;20197;-83
2022/03/31 02:29:10;;;;;;;17.50;3.63;;;20.10;99.90;;;;;;5125228;27;20198;-82
2022/03/31 02:31:41;;;;;;;15.27;4.28;;;20.10;99.90;;;;;;5132140;27;20219;-82
2022/03/31 02:34:12;;;;;;;15.65;3.92;;;20.20;99.90;;;;;;5122476;27;20649;-82
2022/03/31 02:36:43;;;;;;;17.42;4.28;;;20.40;99.90;;;;;;5123963;27;20191;-82
2022/03/31 02:39:15;;;;;;;15.63;3.90;;;20.50;99.90;;;;;;5104253;28;20599;-82
2022/03/31 02:41:46;;;;;;;13.73;4.15;;;20.60;99.90;;;;;;5128735;27;20189;-82
2022/03/31 02:44:17;;;;;;;17.45;4.13;;;20.80;99.90;;;;;;5107593;28;20226;-83
2022/03/31 02:46:48;;;;;;;21.83;4.50;;;20.90;99.90;;;;;;5111685;28;20189;-82
2022/03/31 02:49:20;;;;;;;16.60;3.97;;;21.00;99.90;;;;;;5129196;27;20195;-82
2022/03/31 02:51:51;;;;;;;18.30;3.92;;;21.10;99.90;;;;;;5110036;27;20214;-81
2022/03/31 02:57:10;;;;;;;14.23;3.50;;;21.10;99.90;;;;;;5120285;27;20201;-83
2022/03/31 02:59:41;;;;;;;16.73;3.72;;;21.10;99.90;;;;;;5115930;27;20238;-83
2022/03/31 03:02:13;;;;;;;13.90;3.85;;;21.10;99.90;;;;;;5130814;27;20190;-83
2022/03/31 03:04:43;;;;;;;16.13;3.63;;;21.10;99.90;;;;;;5101444;27;20588;-83
2022/03/31 03:07:15;;;;;;;18.75;4.35;;;21.10;99.90;;;;;;5128980;27;20223;-83
2022/03/31 03:09:47;;;;;;;22.65;4.82;;;21.10;99.90;;;;;;5107577;27;20197;-83
2022/03/31 03:12:18;;;;;;;17.42;4.38;;;21.10;99.90;;;;;;5115887;27;20210;-83
2022/03/31 03:14:49;;;;;;;21.00;5.10;;;21.10;99.90;;;;;;5103205;27;20198;-82
2022/03/31 03:17:19;;;;;;;28.80;4.88;;;21.10;99.90;;;;;;5100752;27;20290;-81
2022/03/31 03:19:50;;;;;;;27.10;5.43;;;21.10;99.90;;;;;;5105441;27;20190;-83
2022/03/31 03:22:21;;;;;;;21.60;5.28;;;21.00;99.90;;;;;;5117856;27;20278;-82
2022/03/31 03:24:54;;;;;;;19.85;4.28;;;21.00;99.90;;;;;;5113346;27;20252;-82
2022/03/31 03:27:25;;;;;;;23.90;4.32;;;21.00;99.90;;;;;;5116429;27;20281;-82
2022/03/31 03:29:56;;;;;;;27.77;4.95;;;21.00;99.90;;;;;;5107508;27;20199;-82
2022/03/31 03:32:26;;;;;;;16.90;4.15;;;20.90;99.90;;;;;;5116607;27;20222;-82
2022/03/31 03:34:57;;;;;;;24.25;5.07;;;21.00;99.90;;;;;;5108938;27;20190;-80
2022/03/31 03:37:27;;;;;;;27.00;4.95;;;21.00;99.90;;;;;;5116244;27;20182;-82
2022/03/31 03:40:02;;;;;;;25.50;4.80;;;21.10;99.90;;;;;;5129788;27;20190;-83
2022/03/31 03:42:33;;;;;;;17.77;3.72;;;21.10;99.90;;;;;;5110777;28;20208;-82
2022/03/31 03:45:03;;;;;;;24.27;3.85;;;21.10;99.90;;;;;;5119579;27;20218;-83
2022/03/31 03:47:35;;;;;;;16.92;3.88;;;21.10;99.90;;;;;;5121853;27;20187;-81
2022/03/31 03:50:06;;;;;;;18.83;3.83;;;21.20;99.90;;;;;;5115737;27;20186;-82
2022/03/31 03:52:38;;;;;;;19.35;3.42;;;21.30;99.90;;;;;;5115042;28;20214;-82
2022/03/31 03:55:11;;;;;;;16.40;3.47;;;21.40;99.90;;;;;;5122136;28;20214;-82
2022/03/31 03:57:42;;;;;;;16.55;4.00;;;21.50;99.90;;;;;;5103310;28;20187;-82
2022/03/31 04:00:13;;;;;;;14.50;3.15;;;21.50;99.90;;;;;;5127446;28;20198;-82
2022/03/31 04:02:44;;;;;;;13.38;2.90;;;21.60;99.90;;;;;;5102887;28;20678;-82
2022/03/31 04:05:15;;;;;;;17.58;3.70;;;21.60;99.90;;;;;;5126750;28;20672;-82
2022/03/31 04:07:45;;;;;;;15.68;3.67;;;21.60;99.90;;;;;;5127789;28;20187;-82
2022/03/31 04:10:18;;;;;;;16.88;3.78;;;21.60;99.90;;;;;;5126596;28;20182;-82
2022/03/31 04:12:49;;;;;;;15.25;3.45;;;21.60;99.90;;;;;;5132720;27;20209;-82
2022/03/31 04:15:19;;;;;;;14.82;3.40;;;21.50;99.90;;;;;;5119492;27;20202;-82
2022/03/31 04:17:50;;;;;;;16.98;3.47;;;21.20;99.90;;;;;;5123720;27;20610;-82
2022/03/31 04:20:20;;;;;;;14.57;3.33;;;21.00;99.90;;;;;;5123359;27;20195;-82
2022/03/31 04:22:51;;;;;;;14.77;3.53;;;20.90;99.90;;;;;;5115818;27;20235;-82
2022/03/31 04:25:24;;;;;;;17.40;3.88;;;20.80;99.90;;;;;;5111669;27;20187;-81
2022/03/31 04:27:54;;;;;;;17.88;4.13;;;20.70;99.90;;;;;;5106303;27;20198;-82
2022/03/31 04:30:26;;;;;;;21.98;4.68;;;20.60;99.90;;;;;;5134541;27;20250;-80
2022/03/31 04:32:57;;;;;;;25.42;4.55;;;20.60;99.90;;;;;;5125649;27;20232;-80
2022/03/31 04:35:29;;;;;;;26.85;4.68;;;20.60;99.90;;;;;;5124822;27;20190;-80
2022/03/31 04:38:00;;;;;;;25.00;4.93;;;20.70;99.90;;;;;;5126399;27;20203;-80
2022/03/31 04:40:34;;;;;;;19.20;4.25;;;20.70;99.90;;;;;;5113398;27;20279;-80
2022/03/31 04:43:05;;;;;;;15.50;4.40;;;20.60;99.90;;;;;;5113912;27;20199;-80
2022/03/31 04:45:35;;;;;;;23.40;4.43;;;20.80;99.90;;;;;;5113905;27;20215;-80
2022/03/31 04:48:06;;;;;;;19.13;4.13;;;21.00;99.90;;;;;;5114212;28;20240;-82
2022/03/31 04:50:37;;;;;;;19.13;3.88;;;21.10;99.90;;;;;;5114194;27;20195;-82
2022/03/31 04:53:08;;;;;;;16.27;3.47;;;21.30;99.90;;;;;;5121980;27;20198;-82
2022/03/31 04:55:41;;;;;;;14.95;3.65;;;21.40;99.90;;;;;;5124948;27;20237;-82
2022/03/31 04:58:12;;;;;;;17.50;3.47;;;21.50;99.90;;;;;;5126261;27;20570;-82
2022/03/31 05:00:43;;;;;;;17.88;3.75;;;21.60;99.90;;;;;;5133602;27;20186;-82
2022/03/31 05:03:14;;;;;;;15.90;3.40;;;21.60;99.90;;;;;;5133042;27;20190;-82
2022/03/31 05:05:44;;;;;;;19.85;3.45;;;21.60;99.90;;;;;;5133501;27;20182;-82
2022/03/31 05:08:16;;;;;;;13.50;3.00;;;21.60;99.90;;;;;;5129264;27;20570;-81
2022/03/31 05:10:48;;;;;;;14.65;3.47;;;21.60;99.90;;;;;;5128770;27;20187;-83
2022/03/31 05:13:19;;;;;;;17.05;3.22;;;21.70;99.90;;;;;;5113882;28;20198;-82
2022/03/31 05:15:50;;;;;;;12.50;3.00;;;21.70;99.90;;;;;;5116136;27;20557;-82
2022/03/31 05:18:22;;;;;;;13.52;3.38;;;21.80;99.90;;;;;;5106088;27;20203;-81
2022/03/31 05:20:53;;;;;;;16.15;3.33;;;21.70;99.90;;;;;;5094400;28;20194;-82
2022/03/31 05:23:23;;;;;;;16.40;3.17;;;21.60;99.90;;;;;;5097069;28;20311;-81
2022/03/31 05:25:56;;;;;;;13.10;3.30;;;21.80;99.90;;;;;;5103488;28;20188;-81
2022/03/31 05:28:27;;;;;;;17.10;3.20;;;21.80;99.90;;;;;;5092683;28;20183;-82
2022/03/31 05:30:58;;;;;;;20.17;3.85;;;21.80;99.90;;;;;;5092692;28;20672;-81
2022/03/31 05:33:29;;;;;;;17.45;3.58;;;21.70;99.90;;;;;;5092851;28;20184;-82
2022/03/31 05:36:01;;;;;;;20.27;3.58;;;21.70;99.90;;;;;;5100050;28;20571;-81
2022/03/31 05:38:32;;;;;;;20.20;3.80;;;21.50;99.90;;;;;;5095912;28;20276;-81
2022/03/31 05:41:05;;;;;;;20.33;3.42;;;21.30;99.90;;;;;;5104809;28;20204;-80
2022/03/31 05:43:35;;;;;;;18.42;3.85;;;21.10;99.90;;;;;;5096031;28;20206;-82
2022/03/31 05:46:06;;;;;;;18.25;3.25;;;21.00;99.90;;;;;;5103969;28;20187;-82
2022/03/31 05:48:37;;;;;;;18.25;3.45;;;20.80;99.90;;;;;;5104112;28;20221;-82
2022/03/31 05:51:07;;;;;;;21.35;3.58;;;20.70;99.90;;;;;;5104117;28;20191;-83
2022/03/31 05:53:39;;;;;;;18.95;3.70;;;20.60;99.90;;;;;;5112367;28;20251;-83
2022/03/31 05:56:11;;;;;;;17.35;3.63;;;20.60;99.90;;;;;;5112158;28;20218;-83
2022/03/31 05:58:42;;;;;;;16.45;3.72;;;20.50;99.90;;;;;;5112120;28;20199;-81
2022/03/31 06:01:12;;;;;;;15.43;3.67;;;20.40;99.90;;;;;;5112000;28;20206;-81
2022/03/31 06:03:43;;;;;;;21.15;3.90;;;20.40;99.90;;;;;;5101368;28;20256;-81
2022/03/31 06:06:14;;;;;;;19.95;3.72;;;20.40;99.90;;;;;;5096407;28;20268;-80
2022/03/31 06:08:45;;;;;;;17.38;3.22;;;20.50;99.90;;;;;;5091716;28;20222;-82
2022/03/31 06:11:17;;;;;;;20.58;4.95;;;20.40;99.90;;;;;;5097758;28;20247;-83
2022/03/31 06:13:48;;;;;;;25.83;4.78;;;20.30;99.90;;;;;;5111204;28;20293;-82
2022/03/31 06:16:19;;;;;;;19.25;3.30;;;19.90;99.90;;;;;;5111779;28;20197;-81
2022/03/31 06:18:50;;;;;;;16.13;3.63;;;19.60;99.90;;;;;;5111962;28;20228;-81
2022/03/31 06:21:21;;;;;;;23.65;4.40;;;19.40;99.90;;;;;;5099601;28;20311;-81
2022/03/31 06:23:51;;;;;;;20.35;4.47;;;19.40;99.90;;;;;;5100766;28;20192;-81
2022/03/31 06:26:24;;;;;;;16.05;4.07;;;19.30;99.90;;;;;;5092598;28;20192;-81
2022/03/31 06:28:55;;;;;;;13.48;3.45;;;19.30;99.90;;;;;;5091707;28;20199;-82
2022/03/31 06:31:27;;;;;;;15.00;3.30;;;19.20;99.90;;;;;;5103782;28;20214;-80
2022/03/31 06:33:58;;;;;;;9.85;2.95;;;19.20;99.90;;;;;;5095836;28;20439;-83
2022/03/31 06:36:29;;;;;;;13.00;3.10;;;19.10;99.90;;;;;;5111388;28;20276;-82
2022/03/31 06:38:59;;;;;;;16.48;3.20;;;19.00;99.90;;;;;;5111396;28;20201;-82
2022/03/31 06:41:32;;;;;;;15.35;3.15;;;18.90;99.90;;;;;;5103458;28;20605;-80
2022/03/31 06:44:02;;;;;;;13.45;2.63;;;18.90;99.90;;;;;;5108275;28;20298;-83
2022/03/31 06:46:33;;;;;;;11.25;2.42;;;18.60;99.90;;;;;;5093060;28;20192;-82
2022/03/31 06:49:03;;;;;;;13.80;3.13;;;18.60;99.90;;;;;;5100936;28;20194;-82
2022/03/31 06:51:34;;;;;;;12.13;3.05;;;18.60;99.90;;;;;;5092972;28;20196;-82
2022/03/31 06:54:07;;;;;;;14.32;3.20;;;18.60;99.90;;;;;;5091546;28;20211;-82
2022/03/31 06:56:40;;;;;;;17.55;3.38;;;18.60;99.90;;;;;;5091191;28;20195;-82
2022/03/31 06:59:10;;;;;;;18.17;3.47;;;18.60;99.90;;;;;;5092080;28;20191;-82
2022/03/31 07:01:41;;;;;;;20.75;3.80;;;18.60;99.90;;;;;;5091917;28;20195;-82
2022/03/31 07:04:12;;;;;;;18.00;3.53;;;18.60;99.90;;;;;;5091008;28;20191;-82
2022/03/31 07:06:42;;;;;;;23.70;4.32;;;18.70;99.90;;;;;;5105772;28;20650;-82
2022/03/31 07:09:13;;;;;;;21.58;4.03;;;18.70;99.90;;;;;;5111033;28;20202;-82
2022/03/31 07:11:45;;;;;;;16.30;3.33;;;18.70;99.90;;;;;;5108053;28;20283;-82
2022/03/31 07:14:16;;;;;;;19.10;3.72;;;18.80;99.90;;;;;;5090866;28;20187;-81
2022/03/31 07:16:48;;;;;;;17.98;3.28;;;18.80;99.90;;;;;;5090812;28;20658;-81
2022/03/31 07:19:19;;;;;;;17.90;3.45;;;18.90;99.90;;;;;;5092887;28;20192;-82
2022/03/31 07:21:51;;;;;;;15.55;3.25;;;19.00;99.90;;;;;;5092510;28;20206;-82
2022/03/31 07:24:22;;;;;;;23.27;3.88;;;19.00;99.90;;;;;;5110696;28;20273;-82
2022/03/31 07:26:55;;;;;;;17.42;3.47;;;19.10;99.90;;;;;;5110487;28;20187;-82
2022/03/31 07:29:25;;;;;;;14.20;3.22;;;19.10;99.90;;;;;;5110282;28;20183;-83
2022/03/31 07:31:56;;;;;;;15.68;3.28;;;19.20;99.90;;;;;;5110396;28;20210;-82
2022/03/31 07:34:27;;;;;;;18.50;3.85;;;19.30;99.90;;;;;;5110182;28;20208;-82
2022/03/31 07:36:59;;;;;;;19.65;3.00;;;19.30;99.90;;;;;;5110241;28;20198;-82
2022/03/31 07:39:30;;;;;;;14.93;3.10;;;19.40;99.90;;;;;;5107757;28;20198;-82
2022/03/31 07:42:03;;;;;;;13.88;3.33;;;19.40;99.90;;;;;;5090544;28;20195;-82
2022/03/31 07:44:33;;;;;;;16.60;3.53;;;19.50;99.90;;;;;;5090217;28;20222;-82
2022/03/31 07:47:04;;;;;;;17.35;2.80;;;19.50;99.90;;;;;;5090209;28;20198;-82
2022/03/31 07:49:34;;;;;;;19.05;2.95;;;19.40;99.90;;;;;;5093032;28;20187;-82
2022/03/31 07:52:06;;;;;;;16.40;3.00;;;19.40;99.90;;;;;;5093688;28;20215;-82
2022/03/31 07:54:36;;;;;;;15.35;2.72;;;19.40;99.90;;;;;;5107622;28;20214;-82
2022/03/31 07:57:09;;;;;;;12.32;2.63;;;19.40;99.90;;;;;;5105826;28;20245;-82
2022/03/31 07:59:40;;;;;;;18.45;4.32;;;19.40;99.90;;;;;;5093084;28;20256;-82
2022/03/31 08:02:11;;;;;;;14.55;2.97;;;19.50;99.90;;;;;;5090359;28;20198;-79
2022/03/31 08:04:41;;;;;;;13.93;2.97;;;19.60;99.90;;;;;;5097119;28;20191;-81
2022/03/31 08:07:13;;;;;;;21.92;4.50;;;19.60;99.90;;;;;;5090539;28;20183;-81
2022/03/31 08:09:44;;;;;;;14.52;2.90;;;19.70;99.90;;;;;;5090145;28;20591;-82
2022/03/31 08:12:16;;;;;;;18.02;3.30;;;19.60;99.90;;;;;;5094511;28;20211;-81
2022/03/31 08:14:47;;;;;;;15.48;3.17;;;19.60;99.90;;;;;;5105817;28;20226;-82
2022/03/31 08:17:18;;;;;;;11.98;2.80;;;19.60;99.90;;;;;;5110266;28;20562;-82
2022/03/31 08:19:48;;;;;;;18.35;3.15;;;19.70;99.90;;;;;;5102836;28;20195;-82
2022/03/31 08:22:19;;;;;;;16.77;4.15;;;19.70;99.90;;;;;;5093056;28;20199;-82
2022/03/31 08:24:50;;;;;;;12.60;3.10;;;19.70;99.90;;;;;;5110242;28;20197;-82
2022/03/31 08:27:22;;;;;;;13.68;2.90;;;19.60;99.90;;;;;;5109957;28;20206;-82
2022/03/31 08:29:54;;;;;;;9.93;2.55;;;19.60;99.90;;;;;;5109939;28;20190;-81
2022/03/31 08:32:24;;;;;;;14.77;2.75;;;19.60;99.90;;;;;;5109608;28;20590;-82
2022/03/31 08:34:55;;;;;;;18.33;3.50;;;19.60;99.90;;;;;;5109790;28;20535;-82
2022/03/31 08:37:25;;;;;;;15.00;2.63;;;19.60;99.90;;;;;;5109616;28;20251;-81
2022/03/31 08:39:56;;;;;;;12.85;3.10;;;19.60;99.90;;;;;;5109700;28;20278;-82
2022/03/31 08:42:29;;;;;;;11.15;2.60;;;19.60;99.90;;;;;;5108902;28;20195;-82
2022/03/31 08:45:02;;;;;;;13.18;3.35;;;19.60;99.90;;;;;;5109223;28;20226;-82
2022/03/31 08:47:32;;;;;;;12.15;2.47;;;19.60;99.90;;;;;;5108807;28;20198;-82
2022/03/31 08:50:03;;;;;;;7.82;2.40;;;19.60;99.90;;;;;;5089852;28;20723;-83
2022/03/31 08:52:33;;;;;;;14.30;2.50;;;19.70;99.90;;;;;;5089743;28;20250;-82
2022/03/31 08:55:04;;;;;;;10.68;2.20;;;19.70;99.90;;;;;;5089808;28;20264;-82
2022/03/31 08:57:48;;;;;;;11.25;2.45;;;19.70;99.90;;;;;;5101736;28;20198;-82
2022/03/31 09:00:20;;;;;;;14.75;2.30;;;19.70;99.90;;;;;;5095951;28;20202;-82
2022/03/31 09:02:59;;;;;;;13.23;2.92;;;19.80;99.90;;;;;;5093805;28;20268;-82
2022/03/31 09:05:36;;;;;;;13.80;2.70;;;19.80;99.90;;;;;;5106869;28;20194;-82
2022/03/31 09:08:09;;;;;;;10.88;2.05;;;19.80;99.90;;;;;;5112828;28;20197;-82
2022/03/31 09:10:41;;;;;;;9.82;2.08;;;19.80;99.90;;;;;;5112962;28;20245;-82
2022/03/31 09:13:24;;;;;;;11.48;2.38;;;19.80;99.90;;;;;;5097116;28;20223;-80
2022/03/31 09:15:58;;;;;;;13.43;2.45;;;19.80;99.90;;;;;;5093093;28;20319;-80
2022/03/31 09:18:30;;;;;;;13.57;2.60;;;19.80;99.90;;;;;;5093087;28;20188;-81
2022/03/31 09:21:03;;;;;;;12.93;2.53;;;19.80;99.90;;;;;;5105282;28;20194;-80
2022/03/31 09:23:34;;;;;;;9.43;2.45;;;19.80;99.90;;;;;;5095269;28;20719;-80
2022/03/31 09:26:08;;;;;;;13.25;2.63;;;19.90;99.90;;;;;;5092891;28;20188;-79
2022/03/31 09:28:41;;;;;;;15.15;3.03;;;19.90;99.90;;;;;;5092521;28;20187;-79
2022/03/31 09:31:12;;;;;;;12.65;2.70;;;20.00;99.90;;;;;;5092748;28;20195;-79
2022/03/31 09:33:48;;;;;;;11.38;2.67;;;19.90;99.90;;;;;;5092909;28;21000;-80
2022/03/31 09:36:19;;;;;;;10.43;2.50;;;19.80;99.90;;;;;;5097949;28;20216;-79
2022/03/31 09:38:56;;;;;;;15.90;3.25;;;19.70;99.90;;;;;;5100520;28;20227;-80
2022/03/31 09:41:28;;;;;;;17.90;3.38;;;19.60;99.90;;;;;;5112286;28;20194;-81
2022/03/31 09:44:02;;;;;;;14.40;3.42;;;19.60;99.90;;;;;;5092222;28;20744;-79
2022/03/31 09:46:35;;;;;;;12.18;2.90;;;19.50;99.90;;;;;;5092733;28;20206;-80
2022/03/31 09:49:15;;;;;;;15.05;3.05;;;19.40;99.90;;;;;;5092361;28;20259;-80
2022/03/31 09:51:47;;;;;;;12.85;2.90;;;19.50;99.90;;;;;;5092651;28;20292;-81
2022/03/31 09:54:18;;;;;;;8.95;2.03;;;19.40;99.90;;;;;;5104569;28;20225;-80
2022/03/31 09:56:49;;;;;;;9.10;2.17;;;19.40;99.90;;;;;;5101826;28;20654;-80
2022/03/31 09:59:21;;;;;;;9.68;1.92;;;19.40;99.90;;;;;;5103769;28;20199;-81
2022/03/31 10:01:52;;;;;;;7.55;1.92;;;19.40;99.90;;;;;;5096453;28;20282;-80
2022/03/31 10:04:24;;;;;;;9.65;2.25;;;19.40;99.90;;;;;;5093070;28;20200;-81
2022/03/31 10:06:55;;;;;;;14.15;2.90;;;19.40;99.90;;;;;;5093774;28;20588;-80
2022/03/31 10:09:27;;;;;;;12.40;2.97;;;19.40;99.90;;;;;;5098632;28;20203;-79
2022/03/31 10:12:05;;;;;;;15.98;2.90;;;19.50;99.90;;;;;;5103390;28;20274;-82
2022/03/31 10:14:45;;;;;;;14.48;2.47;;;19.50;99.90;;;;;;5095684;28;20243;-81
2022/03/31 10:17:16;;;;;;;12.52;2.80;;;19.50;99.90;;;;;;5091961;28;20732;-79
2022/03/31 10:19:48;;;;;;;13.07;2.92;;;19.50;99.90;;;;;;5095475;28;20615;-81
2022/03/31 10:25:03;;;;;;;10.85;2.38;;;19.50;99.90;;;;;;5094868;28;20206;-80
2022/03/31 10:27:35;;;;;;;12.65;2.50;;;19.50;99.90;;;;;;5091856;28;20555;-79
2022/03/31 10:30:17;;;;;;;13.15;2.08;;;19.60;99.90;;;;;;5097779;28;20606;-81
2022/03/31 10:32:56;;;;;;;8.68;1.85;;;19.60;99.90;;;;;;5104583;28;20219;-80
2022/03/31 10:35:28;;;;;;;16.95;2.10;;;19.60;99.90;;;;;;5099453;28;20191;-81
2022/03/31 10:37:59;;;;;;;9.55;2.15;;;19.70;99.90;;;;;;5091375;28;20692;-81
2022/03/31 10:40:38;;;;;;;16.05;3.08;;;19.70;99.90;;;;;;5099081;28;20199;-80
2022/03/31 10:43:11;;;;;;;12.13;2.78;;;19.50;99.90;;;;;;5111111;28;20198;-81
2022/03/31 10:45:44;;;;;;;11.20;2.20;;;19.30;99.90;;;;;;5091223;28;20219;-80
2022/03/31 10:48:20;;;;;;;11.70;2.78;;;19.20;99.90;;;;;;5099064;28;20203;-80
2022/03/31 10:51:02;;;;;;;15.05;3.10;;;19.00;99.90;;;;;;5103640;28;20190;-81
2022/03/31 10:53:34;;;;;;;12.80;2.80;;;18.90;99.90;;;;;;5105726;28;20267;-80
2022/03/31 10:56:05;;;;;;;11.38;2.58;;;18.90;99.90;;;;;;5091153;28;20192;-80
2022/03/31 10:58:36;;;;;;;12.13;2.85;;;18.80;99.90;;;;;;5099516;28;20192;-81
2022/03/31 11:01:09;;;;;;;11.27;2.72;;;18.80;99.90;;;;;;5094512;28;20680;-81
2022/03/31 11:03:39;;;;;;;12.27;2.40;;;18.70;99.90;;;;;;5098866;28;20687;-80
2022/03/31 11:06:11;;;;;;;14.05;2.47;;;18.70;99.90;;;;;;5104559;28;20199;-82
2022/03/31 11:08:46;;;;;;;12.43;2.40;;;18.70;99.90;;;;;;5090258;28;20244;-80
2022/03/31 11:11:24;;;;;;;9.35;1.90;;;18.60;99.90;;;;;;5094252;28;20646;-80
2022/03/31 11:13:56;;;;;;;16.02;2.95;;;18.50;99.90;;;;;;5091160;28;20206;-80
2022/03/31 11:16:38;;;;;;;14.27;2.55;;;18.60;99.90;;;;;;5093291;28;20269;-80
2022/03/31 11:19:09;;;;;;;11.70;2.50;;;18.60;99.90;;;;;;5102528;28;20273;-80
2022/03/31 11:21:40;;;;;;;9.05;1.90;;;18.50;99.90;;;;;;5109347;28;20232;-80
2022/03/31 11:24:11;;;;;;;11.88;2.30;;;18.50;99.90;;;;;;5092959;28;20199;-81
2022/03/31 11:26:44;;;;;;;9.43;2.53;;;18.50;99.90;;;;;;5094583;28;20191;-80
2022/03/31 11:29:16;;;;;;;12.95;2.42;;;18.50;99.90;;;;;;5095472;28;20202;-81
2022/03/31 11:31:50;;;;;;;9.00;1.95;;;18.50;99.90;;;;;;5096681;28;20188;-81
2022/03/31 11:34:23;;;;;;;9.63;2.40;;;18.50;99.90;;;;;;5103059;28;20639;-82
2022/03/31 11:36:55;;;;;;;14.77;2.95;;;18.50;99.90;;;;;;5108114;28;20201;-82
2022/03/31 11:39:28;;;;;;;12.88;2.53;;;18.50;99.90;;;;;;5098970;28;20576;-80
2022/03/31 11:42:00;;;;;;;14.13;2.70;;;18.50;99.90;;;;;;5097911;28;20222;-79
2022/03/31 11:44:32;;;;;;;11.73;2.80;;;18.50;99.90;;;;;;5089855;28;20319;-80
2022/03/31 11:47:09;;;;;;;15.68;2.92;;;18.40;99.90;;;;;;5098289;28;20197;-80
2022/03/31 11:49:42;;;;;;;14.30;2.72;;;18.50;99.90;;;;;;5109592;28;20701;-80
2022/03/31 11:52:12;;;;;;;9.75;2.40;;;18.50;99.90;;;;;;5104822;28;20289;-81
2022/03/31 11:54:44;;;;;;;7.78;2.35;;;18.40;99.90;;;;;;5096597;28;20286;-78
2022/03/31 11:57:15;;;;;;;11.93;2.35;;;18.40;99.90;;;;;;5107953;28;20729;-81
2022/03/31 11:59:48;;;;;;;10.45;2.38;;;18.50;99.90;;;;;;5090978;28;20191;-82
2022/03/31 12:02:21;;;;;;;11.00;2.00;;;18.40;99.90;;;;;;5090435;28;20249;-81
2022/03/31 12:04:55;;;;;;;9.75;2.22;;;18.40;99.90;;;;;;5091603;28;20312;-81
2022/03/31 12:07:25;;;;;;;10.00;1.95;;;18.40;99.90;;;;;;5090691;28;20187;-81
2022/03/31 12:09:57;;;;;;;11.07;2.47;;;18.50;99.90;;;;;;5090673;28;20187;-81
2022/03/31 12:12:28;;;;;;;10.70;2.25;;;18.40;99.90;;;;;;5109306;28;20195;-80
2022/03/31 12:15:00;;;;;;;10.70;2.20;;;18.30;99.90;;;;;;5089905;28;20222;-79
2022/03/31 12:17:32;;;;;;;9.10;1.90;;;18.30;99.90;;;;;;5100050;28;20183;-80
2022/03/31 12:20:03;;;;;;;11.43;2.10;;;18.10;99.90;;;;;;5098548;28;20187;-80
2022/03/31 12:22:35;;;;;;;7.47;2.10;;;18.00;99.90;;;;;;5096971;28;20208;-80
2022/03/31 12:25:06;;;;;;;7.28;1.80;;;17.80;99.90;;;;;;5109810;28;20198;-79
2022/03/31 12:27:46;;;;;;;11.80;2.33;;;17.80;99.90;;;;;;5099251;28;20201;-81
2022/03/31 12:30:17;;;;;;;7.70;1.83;;;17.80;99.90;;;;;;5106522;28;20187;-82
2022/03/31 12:32:53;;;;;;;10.35;2.03;;;17.70;99.90;;;;;;5111248;28;20191;-81
2022/03/31 12:35:33;;;;;;;9.75;1.95;;;17.70;99.90;;;;;;5103947;28;20226;-78
2022/03/31 12:38:07;;;;;;;10.50;2.15;;;17.70;99.90;;;;;;5109756;28;20750;-79
2022/03/31 12:40:38;;;;;;;10.10;2.20;;;17.60;99.90;;;;;;5098316;28;20219;-80
2022/03/31 12:43:09;;;;;;;10.50;2.30;;;17.60;99.90;;;;;;5108752;28;20259;-81
2022/03/31 12:45:41;;;;;;;9.00;1.80;;;17.60;99.90;;;;;;5110470;28;20230;-81
2022/03/31 12:48:14;;;;;;;14.02;2.78;;;17.60;99.90;;;;;;5094197;28;20240;-82
2022/03/31 12:50:44;;;;;;;8.95;2.13;;;17.60;99.90;;;;;;5100427;28;20199;-82
2022/03/31 12:53:16;;;;;;;9.65;1.98;;;17.60;99.90;;;;;;5097027;28;20187;-82
2022/03/31 12:55:46;;;;;;;10.40;2.13;;;17.60;99.90;;;;;;5097732;27;20218;-82
2022/03/31 12:58:17;;;;;;;9.65;1.90;;;17.60;99.90;;;;;;5115172;27;20194;-83
2022/03/31 13:00:55;;;;;;;9.13;2.03;;;17.60;99.90;;;;;;5110350;27;20240;-82
2022/03/31 13:03:27;;;;;;;11.45;2.50;;;17.70;99.90;;;;;;5114084;27;20613;-80
2022/03/31 13:05:58;;;;;;;11.10;1.98;;;17.70;99.90;;;;;;5113789;27;20194;-82